createdAt,value
2023-05-08T00:02:16.054Z,7.26
2023-05-08T00:04:55.405Z,7.75
2023-05-08T00:07:34.742Z,7.87
2023-05-08T00:10:16.361Z,8.00
2023-05-08T00:13:00.992Z,8.05
2023-05-08T00:15:40.544Z,8.49
2023-05-08T00:18:19.962Z,8.55
2023-05-08T00:20:59.227Z,9.14
2023-05-08T00:23:38.617Z,9.42
2023-05-08T00:26:17.925Z,9.04
2023-05-08T00:29:02.262Z,8.98
2023-05-08T00:31:41.614Z,9.56
2023-05-08T00:34:20.927Z,9.67
2023-05-08T00:37:00.317Z,9.52
2023-05-08T00:39:39.609Z,9.36
2023-05-08T00:42:18.916Z,9.36
2023-05-08T00:45:03.316Z,9.15
2023-05-08T00:47:43.630Z,9.21
2023-05-08T00:50:23.174Z,9.65
2023-05-08T00:53:05.189Z,9.59
2023-05-08T00:55:46.104Z,9.50
2023-05-08T00:58:27.886Z,9.77
2023-05-08T01:01:12.630Z,10.07
2023-05-08T01:03:52.150Z,9.97
2023-05-08T01:06:31.500Z,9.74
2023-05-08T01:09:11.083Z,9.80
2023-05-08T01:11:59.194Z,9.95
2023-05-08T01:14:56.058Z,9.75
2023-05-08T01:17:50.484Z,10.41
2023-05-08T01:20:47.132Z,10.66
2023-05-08T01:24:12.284Z,10.42
2023-05-08T01:27:23.924Z,10.55
2023-05-08T01:30:35.066Z,10.68
2023-05-08T01:33:28.176Z,10.12
2023-05-08T01:36:22.015Z,10.47
2023-05-08T01:39:12.337Z,10.68
2023-05-08T01:42:04.442Z,10.24
2023-05-08T01:44:51.080Z,10.71
2023-05-08T01:47:37.305Z,10.66
2023-05-08T01:50:26.740Z,10.58
2023-05-08T01:53:15.223Z,10.31
2023-05-08T01:55:58.352Z,10.73
2023-05-08T01:58:40.617Z,11.18
2023-05-08T02:01:22.556Z,10.88
2023-05-08T02:04:04.085Z,10.95
2023-05-08T02:06:49.448Z,11.17
2023-05-08T02:09:31.262Z,10.80
2023-05-08T02:12:15.415Z,11.11
2023-05-08T02:14:57.235Z,11.35
2023-05-08T02:17:39.233Z,11.01
2023-05-08T02:20:20.962Z,10.89
2023-05-08T02:23:06.521Z,11.30
2023-05-08T02:25:47.216Z,11.26
2023-05-08T02:28:27.990Z,11.11
2023-05-08T02:31:10.037Z,11.38
2023-05-08T02:33:52.427Z,11.01
2023-05-08T02:36:35.059Z,11.24
2023-05-08T02:39:22.689Z,11.35
2023-05-08T02:42:02.140Z,11.16
2023-05-08T02:44:41.596Z,11.36
2023-05-08T02:47:29.474Z,11.41
2023-05-08T02:50:14.521Z,11.19
2023-05-08T02:52:58.190Z,11.27
2023-05-08T02:55:49.997Z,11.43
2023-05-08T02:58:37.312Z,11.39
2023-05-08T03:04:15.261Z,11.52
2023-05-08T03:06:57.748Z,11.82
2023-05-08T03:09:51.670Z,11.01
2023-05-08T03:12:42.709Z,11.63
2023-05-08T03:15:31.229Z,11.34
2023-05-08T03:18:16.267Z,11.49
2023-05-08T03:21:01.468Z,11.70
2023-05-08T03:23:43.475Z,11.61
2023-05-08T03:26:25.621Z,11.47
2023-05-08T03:29:11.320Z,12.07
2023-05-08T03:31:52.381Z,11.93
2023-05-08T03:34:33.488Z,11.80
2023-05-08T03:37:13.741Z,12.07
2023-05-08T03:39:53.386Z,11.88
2023-05-08T03:42:33.905Z,12.46
2023-05-08T03:45:21.288Z,12.00
2023-05-08T03:48:01.477Z,11.65
2023-05-08T03:50:44.738Z,12.03
2023-05-08T03:53:24.164Z,12.20
2023-05-08T03:56:05.431Z,12.21
2023-05-08T03:58:51.912Z,12.47
2023-05-08T04:01:46.464Z,12.30
2023-05-08T04:04:35.299Z,12.93
2023-05-08T04:07:21.258Z,12.62
2023-05-08T04:10:07.588Z,12.84
2023-05-08T04:12:57.807Z,12.29
2023-05-08T04:15:42.484Z,12.06
2023-05-08T04:18:35.627Z,12.43
2023-05-08T04:21:18.799Z,12.63
2023-05-08T04:24:00.193Z,13.02
2023-05-08T04:26:41.440Z,12.82
2023-05-08T04:29:21.864Z,12.25
2023-05-08T04:32:02.995Z,12.60
2023-05-08T04:34:47.726Z,12.48
2023-05-08T04:37:34.486Z,12.78
2023-05-08T04:40:15.987Z,12.70
2023-05-08T04:42:55.403Z,12.29
2023-05-08T04:45:34.737Z,12.60
2023-05-08T04:48:15.127Z,12.57
2023-05-08T04:50:59.564Z,12.81
2023-05-08T04:53:38.879Z,12.74
2023-05-08T04:56:18.225Z,12.56
2023-05-08T04:58:57.566Z,13.05
2023-05-08T05:01:37.675Z,12.85
2023-05-08T05:04:16.993Z,12.76
2023-05-08T05:07:01.491Z,12.96
2023-05-08T05:09:41.281Z,13.35
2023-05-08T05:12:20.651Z,12.58
2023-05-08T05:14:59.974Z,12.40
2023-05-08T05:17:40.101Z,13.17
2023-05-08T05:20:20.612Z,13.01
2023-05-08T05:23:05.078Z,13.11
2023-05-08T05:25:44.406Z,13.39
2023-05-08T05:28:23.753Z,13.50
2023-05-08T05:31:03.249Z,13.89
2023-05-08T05:33:43.608Z,13.75
2023-05-08T05:36:22.965Z,13.80
2023-05-08T05:39:07.623Z,13.44
2023-05-08T05:41:47.091Z,13.52
2023-05-08T05:44:26.426Z,13.46
2023-05-08T05:47:06.408Z,12.65
2023-05-08T05:49:48.060Z,13.26
2023-05-08T05:52:27.922Z,12.98
2023-05-08T05:55:13.398Z,13.10
2023-05-08T05:57:52.950Z,12.87
2023-05-08T06:00:32.511Z,13.43
2023-05-08T06:03:12.148Z,13.09
2023-05-08T06:05:54.331Z,13.42
2023-05-08T06:08:34.680Z,13.26
2023-05-08T06:11:19.123Z,13.10
2023-05-08T06:13:58.442Z,13.53
2023-05-08T06:16:37.846Z,12.79
2023-05-08T06:19:17.220Z,13.17
2023-05-08T06:21:58.485Z,12.99
2023-05-08T06:24:38.060Z,12.88
2023-05-08T06:27:22.613Z,12.75
2023-05-08T06:30:01.960Z,13.33
2023-05-08T06:32:41.305Z,13.25
2023-05-08T06:35:21.782Z,13.24
2023-05-08T06:38:01.148Z,12.90
2023-05-08T06:40:40.481Z,13.03
2023-05-08T06:43:24.928Z,13.31
2023-05-08T06:46:04.484Z,13.63
2023-05-08T06:48:43.840Z,16.78
2023-05-08T06:51:24.388Z,15.05
2023-05-08T06:54:03.703Z,14.03
2023-05-08T06:56:43.309Z,12.81
2023-05-08T06:59:27.968Z,12.99
2023-05-08T07:02:07.413Z,14.06
2023-05-08T07:04:46.836Z,13.81
2023-05-08T07:07:26.169Z,15.30
2023-05-08T07:10:07.842Z,16.44
2023-05-08T07:12:47.445Z,16.96
2023-05-08T07:15:32.221Z,13.41
2023-05-08T07:18:11.706Z,13.03
2023-05-08T07:20:51.056Z,13.44
2023-05-08T07:23:30.521Z,13.74
2023-05-08T07:26:10.244Z,14.03
2023-05-08T07:28:49.531Z,14.14
2023-05-08T07:31:33.977Z,13.24
2023-05-08T07:34:13.304Z,12.53
2023-05-08T07:36:52.704Z,12.61
2023-05-08T07:39:32.060Z,13.00
2023-05-08T07:42:11.458Z,13.00
2023-05-08T07:44:54.914Z,12.78
2023-05-08T07:47:39.828Z,12.91
2023-05-08T07:50:19.234Z,12.76
2023-05-08T07:52:58.753Z,12.57
2023-05-08T07:55:38.063Z,13.09
2023-05-08T07:58:17.414Z,13.04
2023-05-08T08:00:56.887Z,13.35
2023-05-08T08:03:41.414Z,13.52
2023-05-08T08:06:21.244Z,13.64
2023-05-08T08:09:00.604Z,13.03
2023-05-08T08:11:40.154Z,12.73
2023-05-08T08:14:23.460Z,12.89
2023-05-08T08:17:02.904Z,12.86
2023-05-08T08:19:47.351Z,13.22
2023-05-08T08:22:26.704Z,13.05
2023-05-08T08:25:07.479Z,12.76
2023-05-08T08:27:46.802Z,12.84
2023-05-08T08:30:26.161Z,13.32
2023-05-08T08:33:07.315Z,12.99
2023-05-08T08:35:51.787Z,13.35
2023-05-08T08:38:31.076Z,13.57
2023-05-08T08:41:10.458Z,13.25
2023-05-08T08:43:49.884Z,13.84
2023-05-08T08:46:33.534Z,12.93
2023-05-08T08:49:17.228Z,13.15
2023-05-08T08:52:06.741Z,13.60
2023-05-08T08:54:49.256Z,13.61
2023-05-08T08:57:30.485Z,13.25
2023-05-08T09:03:00.179Z,13.49
2023-05-08T09:05:40.336Z,13.62
2023-05-08T09:08:26.452Z,13.42
2023-05-08T09:11:09.072Z,13.76
2023-05-08T09:13:48.508Z,13.56
2023-05-08T09:16:28.165Z,13.37
2023-05-08T09:19:08.820Z,13.81
2023-05-08T09:21:48.925Z,14.33
2023-05-08T09:24:34.285Z,14.16
2023-05-08T09:27:28.737Z,14.17
2023-05-08T09:30:11.511Z,13.98
2023-05-08T09:32:52.203Z,14.14
2023-05-08T09:35:43.521Z,14.09
2023-05-08T09:38:43.139Z,14.37
2023-05-08T09:41:27.928Z,14.68
2023-05-08T09:44:12.229Z,14.73
2023-05-08T09:46:51.866Z,14.33
2023-05-08T09:49:31.148Z,14.55
2023-05-08T09:52:10.827Z,15.05
2023-05-08T09:54:50.343Z,14.60
2023-05-08T09:57:35.140Z,14.97
2023-05-08T10:00:17.652Z,14.29
2023-05-08T10:03:05.547Z,14.33
2023-05-08T10:05:44.878Z,15.06
2023-05-08T10:08:30.187Z,14.53
2023-05-08T10:11:23.219Z,14.42
2023-05-08T10:14:07.706Z,14.63
2023-05-08T10:16:52.977Z,14.41
2023-05-08T10:19:33.422Z,14.40
2023-05-08T10:22:18.776Z,14.96
2023-05-08T10:25:04.542Z,15.15
2023-05-08T10:27:52.436Z,14.87
2023-05-08T10:30:39.312Z,15.10
2023-05-08T10:33:22.744Z,15.09
2023-05-08T10:36:02.477Z,15.22
2023-05-08T10:38:44.601Z,15.20
2023-05-08T10:41:24.513Z,15.27
2023-05-08T10:44:06.901Z,14.93
2023-05-08T10:47:00.475Z,15.78
2023-05-08T10:49:51.179Z,15.34
2023-05-08T10:52:41.346Z,15.72
2023-05-08T10:55:29.403Z,15.86
2023-05-08T10:58:13.532Z,15.85
2023-05-08T11:01:22.633Z,15.95
2023-05-08T11:04:07.488Z,15.95
2023-05-08T11:06:54.293Z,15.86
2023-05-08T11:09:37.336Z,15.90
2023-05-08T11:12:28.346Z,15.77
2023-05-08T11:15:11.425Z,16.26
2023-05-08T11:18:01.370Z,15.94
2023-05-08T11:21:05.506Z,16.49
2023-05-08T11:23:44.872Z,16.03
2023-05-08T11:26:24.204Z,16.12
2023-05-08T11:29:04.948Z,15.59
2023-05-08T11:32:00.511Z,16.04
2023-05-08T11:34:57.914Z,15.97
2023-05-08T11:37:42.375Z,16.89
2023-05-08T11:40:55.335Z,16.37
2023-05-08T11:44:06.283Z,16.00
2023-05-08T11:46:50.900Z,15.99
2023-05-08T11:49:32.319Z,15.90
2023-05-08T11:52:12.194Z,16.58
2023-05-08T11:54:56.698Z,16.13
2023-05-08T11:57:39.165Z,16.46
2023-05-08T12:00:20.137Z,16.58
2023-05-08T12:02:59.669Z,16.06
2023-05-08T12:05:40.071Z,16.31
2023-05-08T12:08:21.200Z,16.52
2023-05-08T12:11:05.897Z,16.65
2023-05-08T12:13:45.254Z,17.59
2023-05-08T12:16:24.892Z,17.22
2023-05-08T12:19:04.525Z,17.03
2023-05-08T12:21:43.884Z,17.35
2023-05-08T12:24:24.554Z,17.45
2023-05-08T12:27:09.010Z,16.99
2023-05-08T12:29:52.635Z,17.15
2023-05-08T12:32:32.693Z,16.47
2023-05-08T12:35:13.881Z,17.04
2023-05-08T12:37:53.328Z,16.70
2023-05-08T12:40:35.318Z,16.29
2023-05-08T12:43:20.532Z,16.03
2023-05-08T12:45:59.933Z,16.26
2023-05-08T12:48:39.707Z,16.89
2023-05-08T12:51:19.502Z,16.32
2023-05-08T12:53:58.829Z,16.06
2023-05-08T12:56:38.202Z,16.91
2023-05-08T12:59:22.575Z,16.56
2023-05-08T13:02:02.320Z,17.04
2023-05-08T13:04:44.480Z,17.41
2023-05-08T13:07:23.871Z,16.81
2023-05-08T13:10:07.981Z,16.59
2023-05-08T13:12:47.360Z,17.21
2023-05-08T13:15:32.940Z,17.33
2023-05-08T13:18:18.800Z,16.28
2023-05-08T13:20:58.171Z,17.09
2023-05-08T13:23:41.678Z,16.45
2023-05-08T13:26:21.042Z,16.98
2023-05-08T13:29:00.427Z,17.49
2023-05-08T13:31:44.864Z,17.09
2023-05-08T13:34:25.055Z,16.91
2023-05-08T13:37:04.405Z,16.94
2023-05-08T13:39:43.833Z,17.17
2023-05-08T13:42:23.126Z,17.30
2023-05-08T13:45:02.849Z,17.67
2023-05-08T13:47:48.274Z,18.29
2023-05-08T13:50:27.692Z,17.76
2023-05-08T13:53:07.374Z,18.44
2023-05-08T13:55:46.748Z,18.18
2023-05-08T13:58:26.193Z,17.62
2023-05-08T14:01:21.731Z,17.65
2023-05-08T14:04:10.738Z,18.45
2023-05-08T14:06:50.167Z,21.03
2023-05-08T14:09:29.636Z,19.04
2023-05-08T14:12:08.964Z,21.00
2023-05-08T14:14:48.349Z,23.67
2023-05-08T14:17:27.841Z,19.62
2023-05-08T14:20:13.364Z,21.07
2023-05-08T14:22:54.082Z,19.26
2023-05-08T14:25:33.551Z,21.42
2023-05-08T14:28:12.926Z,20.68
2023-05-08T14:30:52.223Z,19.87
2023-05-08T14:33:31.618Z,20.18
2023-05-08T14:36:17.100Z,19.12
2023-05-08T14:38:56.468Z,19.24
2023-05-08T14:41:35.953Z,19.79
2023-05-08T14:44:15.285Z,19.43
2023-05-08T14:46:54.616Z,18.67
2023-05-08T14:52:22.331Z,19.28
2023-05-08T14:55:01.855Z,19.18
2023-05-08T14:57:41.420Z,18.03
2023-05-08T15:00:22.602Z,18.11
2023-05-08T15:03:02.076Z,18.06
2023-05-08T15:05:41.490Z,18.78
2023-05-08T15:08:25.919Z,19.50
2023-05-08T15:11:05.586Z,19.82
2023-05-08T15:13:44.937Z,19.88
2023-05-08T15:16:24.326Z,19.04
2023-05-08T15:19:03.655Z,18.24
2023-05-08T15:21:42.965Z,19.46
2023-05-08T15:24:27.358Z,19.00
2023-05-08T15:27:06.954Z,19.85
2023-05-08T15:29:46.259Z,19.31
2023-05-08T15:32:25.793Z,19.00
2023-05-08T15:35:05.123Z,18.93
2023-05-08T15:37:44.509Z,19.69
2023-05-08T15:40:28.982Z,19.93
2023-05-08T15:43:08.619Z,19.68
2023-05-08T15:45:48.146Z,19.57
2023-05-08T15:48:27.512Z,19.87
2023-05-08T15:51:07.299Z,20.04
2023-05-08T15:53:46.641Z,20.84
2023-05-08T15:56:31.075Z,19.80
2023-05-08T15:59:10.456Z,20.56
2023-05-08T16:01:50.801Z,20.51
2023-05-08T16:04:31.338Z,19.94
2023-05-08T16:07:11.062Z,21.17
2023-05-08T16:09:50.451Z,20.20
2023-05-08T16:12:34.905Z,21.33
2023-05-08T16:15:15.220Z,21.08
2023-05-08T16:17:54.669Z,20.49
2023-05-08T16:20:35.704Z,20.79
2023-05-08T16:23:16.059Z,20.61
2023-05-08T16:25:55.369Z,20.95
2023-05-08T16:28:39.891Z,21.23
2023-05-08T16:31:19.220Z,21.34
2023-05-08T16:33:58.522Z,22.04
2023-05-08T16:36:37.889Z,22.25
2023-05-08T16:39:17.203Z,21.75
2023-05-08T16:41:56.582Z,22.31
2023-05-08T16:44:41.088Z,21.97
2023-05-08T16:47:20.516Z,21.90
2023-05-08T16:50:00.172Z,22.17
2023-05-08T16:55:24.712Z,21.64
2023-05-08T16:58:05.745Z,21.38
2023-05-08T17:00:50.361Z,21.93
2023-05-08T17:03:29.865Z,21.75
2023-05-08T17:06:13.907Z,21.96
2023-05-08T17:08:53.261Z,22.36
2023-05-08T17:11:32.932Z,22.72
2023-05-08T17:14:12.274Z,23.32
2023-05-08T17:16:56.918Z,21.66
2023-05-08T17:19:36.313Z,22.56
2023-05-08T17:22:15.738Z,21.85
2023-05-08T17:24:55.232Z,20.76
2023-05-08T17:27:36.012Z,18.03
2023-05-08T17:30:17.884Z,14.86
2023-05-08T17:33:02.315Z,14.87
2023-05-08T17:35:41.664Z,13.97
2023-05-08T17:38:21.038Z,15.58
2023-05-08T17:41:00.331Z,15.45
2023-05-08T17:43:39.643Z,15.20
2023-05-08T17:46:19.005Z,14.33
2023-05-08T17:49:03.530Z,14.92
2023-05-08T17:51:43.011Z,14.88
2023-05-08T17:54:22.312Z,14.57
2023-05-08T17:57:01.645Z,14.31
2023-05-08T17:59:41.021Z,14.19
2023-05-08T18:02:20.386Z,14.46
2023-05-08T18:05:04.883Z,14.41
2023-05-08T18:07:44.178Z,14.50
2023-05-08T18:10:23.507Z,15.38
2023-05-08T18:13:02.870Z,15.35
2023-05-08T18:15:42.433Z,15.80
2023-05-08T18:18:21.798Z,15.62
2023-05-08T18:21:06.189Z,15.26
2023-05-08T18:23:45.492Z,15.00
2023-05-08T18:26:25.119Z,15.51
2023-05-08T18:29:04.451Z,15.50
2023-05-08T18:31:43.814Z,15.33
2023-05-08T18:34:23.138Z,15.10
2023-05-08T18:37:07.545Z,15.25
2023-05-08T18:39:46.880Z,14.71
2023-05-08T18:42:26.231Z,14.25
2023-05-08T18:45:06.908Z,14.18
2023-05-08T18:47:46.329Z,13.71
2023-05-08T18:50:25.683Z,14.36
2023-05-08T18:53:11.008Z,16.32
2023-05-08T18:55:50.354Z,18.58
2023-05-08T18:58:29.900Z,17.95
2023-05-08T19:01:09.306Z,17.58
2023-05-08T19:03:49.292Z,18.38
2023-05-08T19:06:28.621Z,16.61
2023-05-08T19:09:13.034Z,16.35
2023-05-08T19:11:52.334Z,15.78
2023-05-08T19:14:31.825Z,15.58
2023-05-08T19:17:11.345Z,16.31
2023-05-08T19:19:50.674Z,16.23
2023-05-08T19:22:30.017Z,15.78
2023-05-08T19:25:15.032Z,15.12
2023-05-08T19:27:54.434Z,16.05
2023-05-08T19:30:33.752Z,15.41
2023-05-08T19:33:13.089Z,15.89
2023-05-08T19:35:52.476Z,15.77
2023-05-08T19:38:31.848Z,15.14
2023-05-08T19:41:19.000Z,15.26
2023-05-08T19:43:58.446Z,15.18
2023-05-08T19:46:38.260Z,15.55
2023-05-08T19:49:18.506Z,15.95
2023-05-08T19:51:57.847Z,15.82
2023-05-08T19:54:37.396Z,15.95
2023-05-08T19:57:21.801Z,15.84
2023-05-08T20:00:01.277Z,16.47
2023-05-08T20:02:40.626Z,16.32
2023-05-08T20:05:23.059Z,16.04
2023-05-08T20:08:10.871Z,15.57
2023-05-08T20:10:50.411Z,16.53
2023-05-08T20:13:34.790Z,16.88
2023-05-08T20:16:14.682Z,17.08
2023-05-08T20:18:54.627Z,16.42
2023-05-08T20:21:35.269Z,16.12
2023-05-08T20:24:14.664Z,16.82
2023-05-08T20:26:55.731Z,16.15
2023-05-08T20:29:40.252Z,16.58
2023-05-08T20:32:20.395Z,16.72
2023-05-08T20:34:59.763Z,16.18
2023-05-08T20:37:39.271Z,17.07
2023-05-08T20:40:19.157Z,16.93
2023-05-08T20:42:58.688Z,16.96
2023-05-08T20:45:43.081Z,17.11
2023-05-08T20:48:22.445Z,16.94
2023-05-08T20:51:01.763Z,16.84
2023-05-08T20:53:41.088Z,17.21
2023-05-08T20:56:21.060Z,17.28
2023-05-08T20:59:00.505Z,17.52
2023-05-08T21:01:45.008Z,17.12
2023-05-08T21:04:24.502Z,16.42
2023-05-08T21:07:03.900Z,16.75
2023-05-08T21:09:43.187Z,16.66
2023-05-08T21:12:22.727Z,17.41
2023-05-08T21:15:02.080Z,17.11
2023-05-08T21:17:46.605Z,16.81
2023-05-08T21:20:26.245Z,17.68
2023-05-08T21:23:05.642Z,16.72
2023-05-08T21:25:44.924Z,16.32
2023-05-08T21:28:24.816Z,16.21
2023-05-08T21:31:04.161Z,16.05
2023-05-08T21:33:48.616Z,16.29
2023-05-08T21:36:27.930Z,16.03
2023-05-08T21:39:07.213Z,15.92
2023-05-08T21:41:49.625Z,16.53
2023-05-08T21:44:28.925Z,16.73
2023-05-08T21:47:08.247Z,16.70
2023-05-08T21:49:52.598Z,17.02
2023-05-08T21:52:32.017Z,17.26
2023-05-08T21:55:12.216Z,16.78
2023-05-08T21:57:51.829Z,16.54
2023-05-08T22:00:31.463Z,16.87
2023-05-08T22:03:11.095Z,16.49
2023-05-08T22:05:56.566Z,16.90
2023-05-08T22:08:35.928Z,16.37
2023-05-08T22:11:15.368Z,16.56
2023-05-08T22:13:54.670Z,16.44
2023-05-08T22:16:34.113Z,16.29
2023-05-08T22:19:13.900Z,16.71
2023-05-08T22:21:58.723Z,16.64
2023-05-08T22:24:38.193Z,16.63
2023-05-08T22:27:17.513Z,16.93
2023-05-08T22:29:56.818Z,16.96
2023-05-08T22:32:36.418Z,17.45
2023-05-08T22:35:16.286Z,17.74
2023-05-08T22:38:01.568Z,18.03
2023-05-08T22:40:43.607Z,17.93
2023-05-08T22:43:23.004Z,16.46
2023-05-08T22:46:02.952Z,17.02
2023-05-08T22:48:42.758Z,16.62
2023-05-08T22:51:22.260Z,16.63
2023-05-08T22:54:07.008Z,17.31
2023-05-08T22:56:46.311Z,17.33
2023-05-08T22:59:26.363Z,17.27
2023-05-08T23:02:05.681Z,17.34
2023-05-08T23:04:45.057Z,17.52
2023-05-08T23:07:24.426Z,17.23
2023-05-08T23:10:08.838Z,18.57
2023-05-08T23:12:48.256Z,18.53
2023-05-08T23:15:27.858Z,17.20
2023-05-08T23:18:07.428Z,18.08
2023-05-08T23:20:46.751Z,17.87
2023-05-08T23:23:26.065Z,18.32
2023-05-08T23:26:11.209Z,18.43
2023-05-08T23:28:50.581Z,17.88
2023-05-08T23:31:29.948Z,18.17
2023-05-08T23:34:09.280Z,18.72
2023-05-08T23:36:48.551Z,18.26
2023-05-08T23:39:27.939Z,18.32
2023-05-08T23:42:13.042Z,18.95
2023-05-08T23:44:52.434Z,17.95
2023-05-08T23:47:32.232Z,19.57
2023-05-08T23:50:12.775Z,18.40
2023-05-08T23:52:52.221Z,17.92
2023-05-08T23:55:31.502Z,17.46
2023-05-08T23:58:16.073Z,17.35
